sensor_id;sensor_type;location;lat;lon;timestamp;pressure;altitude;pressure_sealevel;temperature;humidity
75219;BME280;63801;49.414;19.474;2023-03-17T00:01:28;94379.19;;;-3.87;63.38
75219;BME280;63801;49.414;19.474;2023-03-17T00:03:29;94374.16;;;-3.88;63.36
75219;BME280;63801;49.414;19.474;2023-03-17T00:05:34;94376.00;;;-3.89;63.46
75219;BME280;63801;49.414;19.474;2023-03-17T00:07:35;94374.44;;;-3.90;63.42
75219;BME280;63801;49.414;19.474;2023-03-17T00:09:35;94373.63;;;-3.90;63.60
75219;BME280;63801;49.414;19.474;2023-03-17T00:11:36;94373.63;;;-3.90;63.66
75219;BME280;63801;49.414;19.474;2023-03-17T00:13:36;94368.81;;;-3.93;63.68
75219;BME280;63801;49.414;19.474;2023-03-17T00:15:37;94378.31;;;-3.92;63.56
75219;BME280;63801;49.414;19.474;2023-03-17T00:17:38;94376.72;;;-3.93;63.84
75219;BME280;63801;49.414;19.474;2023-03-17T00:19:39;94375.16;;;-3.94;64.00
75219;BME280;63801;49.414;19.474;2023-03-17T00:21:41;94378.09;;;-3.91;63.76
75219;BME280;63801;49.414;19.474;2023-03-17T00:23:48;94370.91;;;-3.95;64.06
75219;BME280;63801;49.414;19.474;2023-03-17T00:25:49;94376.19;;;-3.95;63.68
75219;BME280;63801;49.414;19.474;2023-03-17T00:27:52;94377.22;;;-3.96;63.97
75219;BME280;63801;49.414;19.474;2023-03-17T00:29:53;94379.31;;;-3.98;63.85
75219;BME280;63801;49.414;19.474;2023-03-17T00:31:56;94375.00;;;-4.04;63.78
75219;BME280;63801;49.414;19.474;2023-03-17T00:33:56;94371.00;;;-4.07;63.87
75219;BME280;63801;49.414;19.474;2023-03-17T00:35:57;94363.88;;;-4.12;64.19
75219;BME280;63801;49.414;19.474;2023-03-17T00:37:58;94383.94;;;-4.05;64.15
75219;BME280;63801;49.414;19.474;2023-03-17T00:39:59;94373.41;;;-4.05;64.24
75219;BME280;63801;49.414;19.474;2023-03-17T00:41:59;94378.13;;;-4.07;64.30
75219;BME280;63801;49.414;19.474;2023-03-17T00:43:59;94372.31;;;-4.10;63.96
75219;BME280;63801;49.414;19.474;2023-03-17T00:46:01;94368.47;;;-4.19;64.16
75219;BME280;63801;49.414;19.474;2023-03-17T00:48:02;94358.44;;;-4.22;64.24
75219;BME280;63801;49.414;19.474;2023-03-17T00:50:05;94370.97;;;-4.12;64.03
75219;BME280;63801;49.414;19.474;2023-03-17T00:52:07;94369.13;;;-4.12;64.31
75219;BME280;63801;49.414;19.474;2023-03-17T00:54:08;94360.66;;;-4.14;64.16
75219;BME280;63801;49.414;19.474;2023-03-17T00:56:17;94368.34;;;-4.12;64.11
75219;BME280;63801;49.414;19.474;2023-03-17T00:58:28;94376.47;;;-4.14;64.24
75219;BME280;63801;49.414;19.474;2023-03-17T01:00:29;94374.53;;;-4.18;64.35
75219;BME280;63801;49.414;19.474;2023-03-17T01:02:30;94385.06;;;-4.18;64.39
75219;BME280;63801;49.414;19.474;2023-03-17T01:04:31;94380.63;;;-4.18;64.44
75219;BME280;63801;49.414;19.474;2023-03-17T01:06:32;94391.13;;;-4.18;64.34
75219;BME280;63801;49.414;19.474;2023-03-17T01:08:33;94391.13;;;-4.18;64.56
75219;BME280;63801;49.414;19.474;2023-03-17T01:10:33;94383.97;;;-4.22;64.50
75219;BME280;63801;49.414;19.474;2023-03-17T01:12:35;94382.69;;;-4.20;64.54
75219;BME280;63801;49.414;19.474;2023-03-17T01:14:35;94389.78;;;-4.20;64.37
75219;BME280;63801;49.414;19.474;2023-03-17T01:16:36;94385.56;;;-4.21;64.44
75219;BME280;63801;49.414;19.474;2023-03-17T01:18:38;94383.16;;;-4.23;64.39
75219;BME280;63801;49.414;19.474;2023-03-17T01:20:39;94388.91;;;-4.26;64.39
75219;BME280;63801;49.414;19.474;2023-03-17T01:22:39;94383.66;;;-4.26;64.62
75219;BME280;63801;49.414;19.474;2023-03-17T01:24:40;94387.31;;;-4.27;64.60
75219;BME280;63801;49.414;19.474;2023-03-17T01:26:40;94382.84;;;-4.26;64.69
75219;BME280;63801;49.414;19.474;2023-03-17T01:28:41;94384.69;;;-4.27;64.65
75219;BME280;63801;49.414;19.474;2023-03-17T01:30:42;94388.63;;;-4.29;64.81
75219;BME280;63801;49.414;19.474;2023-03-17T01:32:44;94382.78;;;-4.31;64.82
75219;BME280;63801;49.414;19.474;2023-03-17T01:34:44;94387.25;;;-4.32;64.89
75219;BME280;63801;49.414;19.474;2023-03-17T01:36:45;94387.47;;;-4.33;64.66
75219;BME280;63801;49.414;19.474;2023-03-17T01:38:46;94384.53;;;-4.37;64.83
75219;BME280;63801;49.414;19.474;2023-03-17T01:40:50;94389.56;;;-4.35;64.79
75219;BME280;63801;49.414;19.474;2023-03-17T01:42:54;94378.38;;;-4.42;64.76
75219;BME280;63801;49.414;19.474;2023-03-17T01:45:07;94404.25;;;-4.39;64.81
75219;BME280;63801;49.414;19.474;2023-03-17T01:47:28;94393.94;;;-4.41;64.74
75219;BME280;63801;49.414;19.474;2023-03-17T01:49:33;94386.22;;;-4.47;64.77
75219;BME280;63801;49.414;19.474;2023-03-17T01:53:55;94383.25;;;-4.51;64.88
75219;BME280;63801;49.414;19.474;2023-03-17T01:55:56;94382.94;;;-4.55;64.97
75219;BME280;63801;49.414;19.474;2023-03-17T01:57:57;94375.31;;;-4.56;64.99
75219;BME280;63801;49.414;19.474;2023-03-17T02:02:07;94378.41;;;-4.59;64.90
75219;BME280;63801;49.414;19.474;2023-03-17T02:04:10;94377.06;;;-4.62;65.04
75219;BME280;63801;49.414;19.474;2023-03-17T02:06:11;94381.50;;;-4.62;65.20
75219;BME280;63801;49.414;19.474;2023-03-17T02:08:14;94378.88;;;-4.62;65.17
75219;BME280;63801;49.414;19.474;2023-03-17T02:10:17;94375.69;;;-4.64;64.96
75219;BME280;63801;49.414;19.474;2023-03-17T02:12:20;94386.53;;;-4.61;65.36
75219;BME280;63801;49.414;19.474;2023-03-17T02:14:21;94379.44;;;-4.60;65.42
75219;BME280;63801;49.414;19.474;2023-03-17T02:16:23;94383.66;;;-4.59;65.28
75219;BME280;63801;49.414;19.474;2023-03-17T02:18:24;94377.38;;;-4.58;65.21
75219;BME280;63801;49.414;19.474;2023-03-17T02:22:25;94355.94;;;-4.67;65.34
75219;BME280;63801;49.414;19.474;2023-03-17T02:24:38;94370.50;;;-4.59;65.17
75219;BME280;63801;49.414;19.474;2023-03-17T02:26:41;94370.75;;;-4.61;65.33
75219;BME280;63801;49.414;19.474;2023-03-17T02:28:42;94378.41;;;-4.59;65.19
75219;BME280;63801;49.414;19.474;2023-03-17T02:30:45;94366.53;;;-4.62;65.40
75219;BME280;63801;49.414;19.474;2023-03-17T02:32:45;94374.75;;;-4.58;65.43
75219;BME280;63801;49.414;19.474;2023-03-17T02:34:47;94375.53;;;-4.58;65.31
75219;BME280;63801;49.414;19.474;2023-03-17T02:36:47;94363.41;;;-4.59;65.57
75219;BME280;63801;49.414;19.474;2023-03-17T02:38:48;94355.13;;;-4.67;66.04
75219;BME280;63801;49.414;19.474;2023-03-17T02:40:49;94356.66;;;-4.71;65.84
75219;BME280;63801;49.414;19.474;2023-03-17T02:42:49;94356.56;;;-4.76;65.59
75219;BME280;63801;49.414;19.474;2023-03-17T02:44:50;94360.72;;;-4.80;66.36
75219;BME280;63801;49.414;19.474;2023-03-17T02:46:50;94356.97;;;-4.84;65.71
75219;BME280;63801;49.414;19.474;2023-03-17T02:48:51;94354.25;;;-4.89;65.81
75219;BME280;63801;49.414;19.474;2023-03-17T02:50:51;94350.50;;;-4.93;65.92
75219;BME280;63801;49.414;19.474;2023-03-17T02:52:52;94344.66;;;-4.95;65.72
75219;BME280;63801;49.414;19.474;2023-03-17T02:54:52;94333.22;;;-5.06;65.78
75219;BME280;63801;49.414;19.474;2023-03-17T02:56:53;94353.63;;;-4.96;65.75
75219;BME280;63801;49.414;19.474;2023-03-17T02:58:53;94352.16;;;-5.04;66.00
75219;BME280;63801;49.414;19.474;2023-03-17T03:00:53;94354.88;;;-4.99;65.93
75219;BME280;63801;49.414;19.474;2023-03-17T03:02:54;94353.03;;;-4.99;66.08
75219;BME280;63801;49.414;19.474;2023-03-17T03:04:54;94349.88;;;-5.01;65.87
75219;BME280;63801;49.414;19.474;2023-03-17T03:06:55;94339.34;;;-5.01;66.10
75219;BME280;63801;49.414;19.474;2023-03-17T03:08:56;94334.22;;;-5.07;66.05
75219;BME280;63801;49.414;19.474;2023-03-17T03:10:57;94352.41;;;-5.06;66.09
75219;BME280;63801;49.414;19.474;2023-03-17T03:12:59;94350.81;;;-5.07;66.08
75219;BME280;63801;49.414;19.474;2023-03-17T03:15:00;94347.59;;;-5.09;66.00
75219;BME280;63801;49.414;19.474;2023-03-17T03:17:00;94327.38;;;-5.25;66.08
75219;BME280;63801;49.414;19.474;2023-03-17T03:19:01;94337.47;;;-5.17;66.00
75219;BME280;63801;49.414;19.474;2023-03-17T03:21:03;94354.94;;;-5.11;66.29
75219;BME280;63801;49.414;19.474;2023-03-17T03:23:03;94350.63;;;-5.17;66.16
75219;BME280;63801;49.414;19.474;2023-03-17T03:25:05;94356.19;;;-5.13;66.24
75219;BME280;63801;49.414;19.474;2023-03-17T03:27:06;94357.78;;;-5.12;66.36
75219;BME280;63801;49.414;19.474;2023-03-17T03:29:07;94351.75;;;-5.13;66.37
75219;BME280;63801;49.414;19.474;2023-03-17T03:31:08;94350.94;;;-5.13;66.64
75219;BME280;63801;49.414;19.474;2023-03-17T03:33:11;94342.81;;;-5.12;66.34
75219;BME280;63801;49.414;19.474;2023-03-17T03:35:12;94338.16;;;-5.10;66.83
75219;BME280;63801;49.414;19.474;2023-03-17T03:37:12;94328.44;;;-5.09;66.55
75219;BME280;63801;49.414;19.474;2023-03-17T03:39:13;94326.03;;;-5.11;66.69
75219;BME280;63801;49.414;19.474;2023-03-17T03:41:13;94329.22;;;-5.09;66.22
75219;BME280;63801;49.414;19.474;2023-03-17T03:43:13;94325.22;;;-5.11;66.61
75219;BME280;63801;49.414;19.474;2023-03-17T03:45:14;94324.22;;;-5.10;66.42
75219;BME280;63801;49.414;19.474;2023-03-17T03:47:15;94326.25;;;-5.12;66.30
75219;BME280;63801;49.414;19.474;2023-03-17T03:49:15;94330.72;;;-5.13;66.38
75219;BME280;63801;49.414;19.474;2023-03-17T03:51:16;94323.81;;;-5.19;66.49
75219;BME280;63801;49.414;19.474;2023-03-17T03:53:16;94334.84;;;-5.17;66.64
75219;BME280;63801;49.414;19.474;2023-03-17T03:55:16;94332.72;;;-5.20;66.51
75219;BME280;63801;49.414;19.474;2023-03-17T03:57:17;94332.47;;;-5.18;66.72
75219;BME280;63801;49.414;19.474;2023-03-17T03:59:17;94326.25;;;-5.29;66.48
75219;BME280;63801;49.414;19.474;2023-03-17T04:01:17;94344.81;;;-5.19;66.61
75219;BME280;63801;49.414;19.474;2023-03-17T04:03:18;94346.88;;;-5.21;66.47
75219;BME280;63801;49.414;19.474;2023-03-17T04:05:19;94337.97;;;-5.20;66.61
75219;BME280;63801;49.414;19.474;2023-03-17T04:07:19;94345.84;;;-5.20;66.64
75219;BME280;63801;49.414;19.474;2023-03-17T04:09:20;94342.41;;;-5.20;66.54
75219;BME280;63801;49.414;19.474;2023-03-17T04:11:21;94339.00;;;-5.21;66.77
75219;BME280;63801;49.414;19.474;2023-03-17T04:13:21;94337.16;;;-5.20;66.73
75219;BME280;63801;49.414;19.474;2023-03-17T04:15:22;94331.91;;;-5.20;66.93
75219;BME280;63801;49.414;19.474;2023-03-17T04:17:23;94347.13;;;-5.22;66.99
75219;BME280;63801;49.414;19.474;2023-03-17T04:19:23;94356.03;;;-5.23;66.98
75219;BME280;63801;49.414;19.474;2023-03-17T04:21:24;94347.91;;;-5.22;67.10
75219;BME280;63801;49.414;19.474;2023-03-17T04:23:24;94345.28;;;-5.22;66.97
75219;BME280;63801;49.414;19.474;2023-03-17T04:25:25;94326.94;;;-5.33;67.14
75219;BME280;63801;49.414;19.474;2023-03-17T04:27:26;94342.66;;;-5.22;66.88
75219;BME280;63801;49.414;19.474;2023-03-17T04:29:26;94344.72;;;-5.24;67.18
75219;BME280;63801;49.414;19.474;2023-03-17T04:31:26;94346.31;;;-5.23;66.93
75219;BME280;63801;49.414;19.474;2023-03-17T04:33:27;94348.16;;;-5.23;67.09
75219;BME280;63801;49.414;19.474;2023-03-17T04:35:27;94343.94;;;-5.24;67.16
75219;BME280;63801;49.414;19.474;2023-03-17T04:37:28;94343.34;;;-5.26;67.03
75219;BME280;63801;49.414;19.474;2023-03-17T04:39:28;94353.84;;;-5.26;67.02
75219;BME280;63801;49.414;19.474;2023-03-17T04:41:28;94352.03;;;-5.26;67.52
75219;BME280;63801;49.414;19.474;2023-03-17T04:43:29;94345.22;;;-5.27;67.01
75219;BME280;63801;49.414;19.474;2023-03-17T04:45:29;94347.56;;;-5.25;67.29
75219;BME280;63801;49.414;19.474;2023-03-17T04:47:29;94346.56;;;-5.24;67.30
75219;BME280;63801;49.414;19.474;2023-03-17T04:49:30;94357.38;;;-5.21;67.35
75219;BME280;63801;49.414;19.474;2023-03-17T04:51:30;94357.38;;;-5.21;67.27
75219;BME280;63801;49.414;19.474;2023-03-17T04:53:31;94352.69;;;-5.19;67.38
75219;BME280;63801;49.414;19.474;2023-03-17T04:55:31;94355.06;;;-5.17;67.51
75219;BME280;63801;49.414;19.474;2023-03-17T04:57:32;94344.13;;;-5.14;67.70
75219;BME280;63801;49.414;19.474;2023-03-17T04:59:32;94341.97;;;-5.01;67.96
75219;BME280;63801;49.414;19.474;2023-03-17T05:01:32;94342.31;;;-4.80;68.49
75219;BME280;63801;49.414;19.474;2023-03-17T05:03:33;94339.75;;;-4.59;68.74
75219;BME280;63801;49.414;19.474;2023-03-17T05:05:34;94343.94;;;-4.41;68.41
75219;BME280;63801;49.414;19.474;2023-03-17T05:07:35;94346.63;;;-4.19;68.48
75219;BME280;63801;49.414;19.474;2023-03-17T05:09:35;94356.59;;;-3.83;68.99
75219;BME280;63801;49.414;19.474;2023-03-17T05:11:36;94350.50;;;-3.40;68.69
75219;BME280;63801;49.414;19.474;2023-03-17T05:13:36;94330.34;;;-3.02;68.35
75219;BME280;63801;49.414;19.474;2023-03-17T05:15:37;94342.34;;;-2.58;67.61
75219;BME280;63801;49.414;19.474;2023-03-17T05:17:37;94336.75;;;-2.24;67.17
75219;BME280;63801;49.414;19.474;2023-03-17T05:19:37;94342.78;;;-1.87;67.07
75219;BME280;63801;49.414;19.474;2023-03-17T05:21:38;94348.16;;;-1.67;66.20
75219;BME280;63801;49.414;19.474;2023-03-17T05:23:38;94358.78;;;-1.57;66.52
75219;BME280;63801;49.414;19.474;2023-03-17T05:25:39;94362.56;;;-1.32;66.55
75219;BME280;63801;49.414;19.474;2023-03-17T05:27:40;94354.50;;;-0.96;66.51
75219;BME280;63801;49.414;19.474;2023-03-17T05:29:41;94350.56;;;-0.53;66.27
75219;BME280;63801;49.414;19.474;2023-03-17T05:31:41;94353.75;;;-0.05;65.89
75219;BME280;63801;49.414;19.474;2023-03-17T05:33:42;94348.06;;;0.42;65.40
75219;BME280;63801;49.414;19.474;2023-03-17T05:35:42;94340.97;;;0.92;65.30
75219;BME280;63801;49.414;19.474;2023-03-17T05:37:43;94341.00;;;1.30;64.89
75219;BME280;63801;49.414;19.474;2023-03-17T05:39:43;94343.53;;;1.79;64.95
75219;BME280;63801;49.414;19.474;2023-03-17T05:41:44;94342.78;;;2.32;64.65
75219;BME280;63801;49.414;19.474;2023-03-17T05:43:44;94343.56;;;2.80;63.88
75219;BME280;63801;49.414;19.474;2023-03-17T05:45:45;94354.38;;;3.31;63.89
75219;BME280;63801;49.414;19.474;2023-03-17T05:47:46;94337.03;;;3.84;63.47
75219;BME280;63801;49.414;19.474;2023-03-17T05:49:46;94334.09;;;4.32;62.72
75219;BME280;63801;49.414;19.474;2023-03-17T05:51:47;94342.03;;;4.78;62.43
75219;BME280;63801;49.414;19.474;2023-03-17T05:53:47;94347.03;;;5.20;62.05
75219;BME280;63801;49.414;19.474;2023-03-17T05:55:48;94338.59;;;5.63;61.64
75219;BME280;63801;49.414;19.474;2023-03-17T05:57:48;94337.50;;;6.00;61.24
75219;BME280;63801;49.414;19.474;2023-03-17T05:59:49;94343.09;;;6.43;60.15
75219;BME280;63801;49.414;19.474;2023-03-17T06:01:50;94340.59;;;6.77;59.17
75219;BME280;63801;49.414;19.474;2023-03-17T06:03:50;94346.03;;;7.03;59.35
75219;BME280;63801;49.414;19.474;2023-03-17T06:05:50;94342.34;;;7.38;58.45
75219;BME280;63801;49.414;19.474;2023-03-17T06:07:51;94353.56;;;7.75;57.43
75219;BME280;63801;49.414;19.474;2023-03-17T06:09:51;94350.41;;;8.07;57.07
75219;BME280;63801;49.414;19.474;2023-03-17T06:11:51;94329.38;;;8.26;56.16
75219;BME280;63801;49.414;19.474;2023-03-17T06:13:52;94344.63;;;8.69;55.80
75219;BME280;63801;49.414;19.474;2023-03-17T06:15:52;94344.88;;;8.93;55.34
75219;BME280;63801;49.414;19.474;2023-03-17T06:17:53;94354.03;;;9.21;54.38
75219;BME280;63801;49.414;19.474;2023-03-17T06:19:53;94343.41;;;9.54;54.15
75219;BME280;63801;49.414;19.474;2023-03-17T06:21:54;94347.50;;;9.81;53.25
75219;BME280;63801;49.414;19.474;2023-03-17T06:23:54;94344.47;;;10.03;52.89
75219;BME280;63801;49.414;19.474;2023-03-17T06:25:55;94349.34;;;10.30;52.02
75219;BME280;63801;49.414;19.474;2023-03-17T06:27:55;94338.53;;;10.63;51.73
75219;BME280;63801;49.414;19.474;2023-03-17T06:29:56;94349.03;;;10.89;50.86
75219;BME280;63801;49.414;19.474;2023-03-17T06:31:58;94349.97;;;11.17;49.59
75219;BME280;63801;49.414;19.474;2023-03-17T06:33:58;94341.88;;;11.42;49.72
75219;BME280;63801;49.414;19.474;2023-03-17T06:35:59;94343.44;;;11.67;49.33
75219;BME280;63801;49.414;19.474;2023-03-17T06:37:59;94346.47;;;11.78;48.52
75219;BME280;63801;49.414;19.474;2023-03-17T06:40:00;94346.09;;;11.91;47.85
75219;BME280;63801;49.414;19.474;2023-03-17T06:42:00;94352.00;;;12.09;47.29
75219;BME280;63801;49.414;19.474;2023-03-17T06:44:00;94344.53;;;12.30;46.74
75219;BME280;63801;49.414;19.474;2023-03-17T06:46:01;94346.56;;;12.49;46.64
75219;BME280;63801;49.414;19.474;2023-03-17T06:48:01;94347.03;;;12.67;46.23
75219;BME280;63801;49.414;19.474;2023-03-17T06:50:03;94347.25;;;12.89;45.81
75219;BME280;63801;49.414;19.474;2023-03-17T06:52:03;94348.69;;;13.15;44.83
75219;BME280;63801;49.414;19.474;2023-03-17T06:54:03;94346.78;;;13.31;44.41
75219;BME280;63801;49.414;19.474;2023-03-17T06:56:04;94345.81;;;13.39;43.85
75219;BME280;63801;49.414;19.474;2023-03-17T06:58:04;94345.03;;;13.54;44.12
75219;BME280;63801;49.414;19.474;2023-03-17T07:00:05;94349.34;;;13.74;43.49
75219;BME280;63801;49.414;19.474;2023-03-17T07:02:06;94356.75;;;13.93;43.01
75219;BME280;63801;49.414;19.474;2023-03-17T07:04:06;94352.97;;;14.17;42.84
75219;BME280;63801;49.414;19.474;2023-03-17T07:06:07;94352.75;;;14.41;42.48
75219;BME280;63801;49.414;19.474;2023-03-17T07:08:08;94351.28;;;14.66;41.97
75219;BME280;63801;49.414;19.474;2023-03-17T07:10:09;94348.28;;;14.71;41.31
75219;BME280;63801;49.414;19.474;2023-03-17T07:12:09;94344.66;;;14.64;40.97
75219;BME280;63801;49.414;19.474;2023-03-17T07:14:10;94354.28;;;14.61;41.16
75219;BME280;63801;49.414;19.474;2023-03-17T07:16:12;94351.00;;;14.52;40.58
75219;BME280;63801;49.414;19.474;2023-03-17T07:18:13;94343.31;;;14.54;40.61
75219;BME280;63801;49.414;19.474;2023-03-17T07:20:13;94334.66;;;14.68;40.25
75219;BME280;63801;49.414;19.474;2023-03-17T07:22:14;94343.25;;;14.93;40.04
75219;BME280;63801;49.414;19.474;2023-03-17T07:24:14;94347.34;;;15.06;39.80
75219;BME280;63801;49.414;19.474;2023-03-17T07:26:14;94346.09;;;15.22;39.69
75219;BME280;63801;49.414;19.474;2023-03-17T07:28:15;94343.63;;;15.37;39.27
75219;BME280;63801;49.414;19.474;2023-03-17T07:30:15;94341.22;;;15.54;39.03
75219;BME280;63801;49.414;19.474;2023-03-17T07:32:18;94341.66;;;15.83;38.50
75219;BME280;63801;49.414;19.474;2023-03-17T07:34:19;94338.91;;;16.09;37.77
75219;BME280;63801;49.414;19.474;2023-03-17T07:36:20;94342.22;;;16.25;38.02
75219;BME280;63801;49.414;19.474;2023-03-17T07:38:20;94345.91;;;16.40;37.29
75219;BME280;63801;49.414;19.474;2023-03-17T07:40:21;94343.44;;;16.57;37.38
75219;BME280;63801;49.414;19.474;2023-03-17T07:42:21;94350.16;;;16.67;37.53
75219;BME280;63801;49.414;19.474;2023-03-17T07:44:22;94338.31;;;16.86;36.56
75219;BME280;63801;49.414;19.474;2023-03-17T07:46:23;94337.59;;;16.92;36.63
75219;BME280;63801;49.414;19.474;2023-03-17T07:48:24;94343.97;;;17.07;36.78
75219;BME280;63801;49.414;19.474;2023-03-17T07:50:24;94340.94;;;17.16;36.98
75219;BME280;63801;49.414;19.474;2023-03-17T07:52:24;94337.13;;;17.24;36.53
75219;BME280;63801;49.414;19.474;2023-03-17T07:54:25;94341.59;;;17.46;35.86
75219;BME280;63801;49.414;19.474;2023-03-17T07:56:26;94342.03;;;17.51;35.56
75219;BME280;63801;49.414;19.474;2023-03-17T07:58:27;94342.84;;;17.56;35.61
75219;BME280;63801;49.414;19.474;2023-03-17T08:00:27;94339.03;;;17.64;35.57
75219;BME280;63801;49.414;19.474;2023-03-17T08:02:28;94342.59;;;17.71;35.54
75219;BME280;63801;49.414;19.474;2023-03-17T08:04:28;94337.66;;;17.87;34.55
75219;BME280;63801;49.414;19.474;2023-03-17T08:06:29;94337.66;;;17.87;34.74
75219;BME280;63801;49.414;19.474;2023-03-17T08:08:30;94338.06;;;17.93;34.68
75219;BME280;63801;49.414;19.474;2023-03-17T08:10:30;94326.06;;;18.01;34.68
75219;BME280;63801;49.414;19.474;2023-03-17T08:12:31;94329.84;;;17.86;34.83
75219;BME280;63801;49.414;19.474;2023-03-17T08:14:31;94322.25;;;17.62;34.74
75219;BME280;63801;49.414;19.474;2023-03-17T08:16:31;94331.31;;;17.73;35.06
75219;BME280;63801;49.414;19.474;2023-03-17T08:18:32;94334.16;;;17.87;34.65
75219;BME280;63801;49.414;19.474;2023-03-17T08:20:33;94327.56;;;17.95;34.19
75219;BME280;63801;49.414;19.474;2023-03-17T08:22:34;94321.78;;;18.04;34.21
75219;BME280;63801;49.414;19.474;2023-03-17T08:24:35;94317.56;;;18.20;33.62
75219;BME280;63801;49.414;19.474;2023-03-17T08:26:36;94312.97;;;18.31;34.29
75219;BME280;63801;49.414;19.474;2023-03-17T08:28:36;94320.81;;;18.51;34.01
75219;BME280;63801;49.414;19.474;2023-03-17T08:30:37;94324.84;;;18.78;33.74
75219;BME280;63801;49.414;19.474;2023-03-17T08:32:37;94324.94;;;19.06;33.51
75219;BME280;63801;49.414;19.474;2023-03-17T08:34:38;94323.78;;;19.21;32.86
75219;BME280;63801;49.414;19.474;2023-03-17T08:36:38;94328.88;;;19.34;33.43
75219;BME280;63801;49.414;19.474;2023-03-17T08:38:40;94325.00;;;19.38;32.89
75219;BME280;63801;49.414;19.474;2023-03-17T08:40:40;94324.97;;;19.27;33.20
75219;BME280;63801;49.414;19.474;2023-03-17T08:42:43;94322.59;;;19.29;32.65
75219;BME280;63801;49.414;19.474;2023-03-17T08:44:43;94328.09;;;19.37;32.60
75219;BME280;63801;49.414;19.474;2023-03-17T08:46:44;94324.59;;;19.40;31.91
75219;BME280;63801;49.414;19.474;2023-03-17T08:48:46;94328.88;;;19.37;30.95
75219;BME280;63801;49.414;19.474;2023-03-17T08:50:47;94318.25;;;18.82;28.99
75219;BME280;63801;49.414;19.474;2023-03-17T08:52:48;94311.03;;;18.42;30.80
75219;BME280;63801;49.414;19.474;2023-03-17T08:54:48;94326.06;;;18.05;30.58
75219;BME280;63801;49.414;19.474;2023-03-17T08:56:49;94326.06;;;17.53;30.52
75219;BME280;63801;49.414;19.474;2023-03-17T08:58:50;94318.94;;;16.94;31.00
75219;BME280;63801;49.414;19.474;2023-03-17T09:00:51;94321.56;;;16.50;30.41
75219;BME280;63801;49.414;19.474;2023-03-17T09:02:51;94335.88;;;16.14;30.58
75219;BME280;63801;49.414;19.474;2023-03-17T09:04:51;94324.28;;;15.64;31.20
75219;BME280;63801;49.414;19.474;2023-03-17T09:06:53;94324.00;;;15.24;32.06
75219;BME280;63801;49.414;19.474;2023-03-17T09:08:54;94325.72;;;14.67;31.39
75219;BME280;63801;49.414;19.474;2023-03-17T09:10:54;94316.97;;;13.81;31.39
75219;BME280;63801;49.414;19.474;2023-03-17T09:12:54;94330.19;;;13.01;31.62
75219;BME280;63801;49.414;19.474;2023-03-17T09:15:01;94328.16;;;12.11;32.39
75219;BME280;63801;49.414;19.474;2023-03-17T09:17:02;94324.75;;;11.62;33.25
75219;BME280;63801;49.414;19.474;2023-03-17T09:19:02;94331.88;;;11.30;33.77
75219;BME280;63801;49.414;19.474;2023-03-17T09:21:04;94325.66;;;10.81;34.14
75219;BME280;63801;49.414;19.474;2023-03-17T09:23:08;94318.72;;;10.35;34.62
75219;BME280;63801;49.414;19.474;2023-03-17T09:25:09;94333.03;;;10.06;35.18
75219;BME280;63801;49.414;19.474;2023-03-17T09:27:10;94323.00;;;9.74;34.99
75219;BME280;63801;49.414;19.474;2023-03-17T09:29:11;94321.66;;;9.38;35.84
75219;BME280;63801;49.414;19.474;2023-03-17T09:31:12;94325.06;;;9.27;36.43
75219;BME280;63801;49.414;19.474;2023-03-17T09:33:12;94327.72;;;9.06;36.86
75219;BME280;63801;49.414;19.474;2023-03-17T09:35:13;94321.78;;;8.92;37.05
75219;BME280;63801;49.414;19.474;2023-03-17T09:37:13;94322.50;;;8.72;37.14
75219;BME280;63801;49.414;19.474;2023-03-17T09:39:13;94312.53;;;8.64;37.33
75219;BME280;63801;49.414;19.474;2023-03-17T09:41:34;94313.88;;;8.49;36.96
75219;BME280;63801;49.414;19.474;2023-03-17T09:45:54;94299.06;;;8.17;37.84
75219;BME280;63801;49.414;19.474;2023-03-17T09:50:11;94294.66;;;8.12;38.00
75219;BME280;63801;49.414;19.474;2023-03-17T09:52:16;94298.94;;;8.05;38.13
75219;BME280;63801;49.414;19.474;2023-03-17T09:54:20;94274.63;;;7.76;37.92
75219;BME280;63801;49.414;19.474;2023-03-17T09:56:23;94300.84;;;7.87;38.20
75219;BME280;63801;49.414;19.474;2023-03-17T09:58:28;94302.59;;;7.83;38.21
75219;BME280;63801;49.414;19.474;2023-03-17T10:00:30;94294.34;;;7.88;38.42
75219;BME280;63801;49.414;19.474;2023-03-17T10:02:33;94295.63;;;7.91;38.18
75219;BME280;63801;49.414;19.474;2023-03-17T10:04:34;94288.97;;;7.97;38.32
75219;BME280;63801;49.414;19.474;2023-03-17T10:06:38;94291.81;;;8.09;38.66
75219;BME280;63801;49.414;19.474;2023-03-17T10:08:54;94293.22;;;8.15;38.31
75219;BME280;63801;49.414;19.474;2023-03-17T10:11:18;94282.78;;;8.22;38.69
75219;BME280;63801;49.414;19.474;2023-03-17T10:16:01;94281.69;;;8.32;37.90
75219;BME280;63801;49.414;19.474;2023-03-17T10:18:14;94272.53;;;8.16;38.03
75219;BME280;63801;49.414;19.474;2023-03-17T10:24:43;94256.69;;;8.40;38.77
75219;BME280;63801;49.414;19.474;2023-03-17T10:26:48;94275.84;;;8.68;38.24
75219;BME280;63801;49.414;19.474;2023-03-17T10:28:49;94270.28;;;8.73;37.98
75219;BME280;63801;49.414;19.474;2023-03-17T10:30:49;94261.78;;;8.71;37.77
75219;BME280;63801;49.414;19.474;2023-03-17T10:32:49;94262.84;;;8.78;38.29
75219;BME280;63801;49.414;19.474;2023-03-17T10:34:51;94264.59;;;8.74;37.98
75219;BME280;63801;49.414;19.474;2023-03-17T10:36:59;94256.59;;;8.66;38.08
75219;BME280;63801;49.414;19.474;2023-03-17T10:39:02;94259.72;;;8.68;38.11
75219;BME280;63801;49.414;19.474;2023-03-17T10:41:07;94258.97;;;8.67;37.72
75219;BME280;63801;49.414;19.474;2023-03-17T10:43:15;94257.69;;;8.65;38.27
75219;BME280;63801;49.414;19.474;2023-03-17T10:45:31;94257.00;;;8.76;38.29
75219;BME280;63801;49.414;19.474;2023-03-17T10:47:33;94250.47;;;8.86;38.53
75219;BME280;63801;49.414;19.474;2023-03-17T10:49:37;94241.53;;;9.02;38.30
75219;BME280;63801;49.414;19.474;2023-03-17T10:51:37;94245.63;;;9.00;37.56
75219;BME280;63801;49.414;19.474;2023-03-17T10:53:40;94232.50;;;8.98;37.85
75219;BME280;63801;49.414;19.474;2023-03-17T10:55:51;94233.13;;;9.04;38.10